sensor_id;sensor_type;location;lat;lon;timestamp;temperature;humidity
34873;DHT22;21084;51.098;14.506;2023-07-30T00:02:16;13.30;99.90
34873;DHT22;21084;51.098;14.506;2023-07-30T00:04:45;13.30;99.90
34873;DHT22;21084;51.098;14.506;2023-07-30T00:07:13;13.20;99.90
34873;DHT22;21084;51.098;14.506;2023-07-30T00:09:42;13.20;99.90
34873;DHT22;21084;51.098;14.506;2023-07-30T00:12:11;13.20;99.90
34873;DHT22;21084;51.098;14.506;2023-07-30T00:14:39;13.20;99.90
34873;DHT22;21084;51.098;14.506;2023-07-30T00:17:08;13.20;99.90
34873;DHT22;21084;51.098;14.506;2023-07-30T00:19:36;13.10;99.90
34873;DHT22;21084;51.098;14.506;2023-07-30T00:22:04;13.20;99.90
34873;DHT22;21084;51.098;14.506;2023-07-30T00:24:33;13.20;99.90
34873;DHT22;21084;51.098;14.506;2023-07-30T00:27:01;13.20;99.90
34873;DHT22;21084;51.098;14.506;2023-07-30T00:29:31;13.10;99.90
34873;DHT22;21084;51.098;14.506;2023-07-30T00:31:59;13.20;99.90
34873;DHT22;21084;51.098;14.506;2023-07-30T00:34:27;13.20;99.90
34873;DHT22;21084;51.098;14.506;2023-07-30T00:36:55;13.20;99.90
34873;DHT22;21084;51.098;14.506;2023-07-30T00:39:24;13.20;99.90
34873;DHT22;21084;51.098;14.506;2023-07-30T00:41:52;13.20;99.90
34873;DHT22;21084;51.098;14.506;2023-07-30T00:44:20;13.20;99.90
34873;DHT22;21084;51.098;14.506;2023-07-30T00:46:52;13.20;99.90
34873;DHT22;21084;51.098;14.506;2023-07-30T00:49:20;13.20;99.90
34873;DHT22;21084;51.098;14.506;2023-07-30T00:51:49;13.20;99.90
34873;DHT22;21084;51.098;14.506;2023-07-30T00:54:17;13.10;99.90
34873;DHT22;21084;51.098;14.506;2023-07-30T00:56:50;13.10;99.90
34873;DHT22;21084;51.098;14.506;2023-07-30T00:59:18;13.00;99.90
34873;DHT22;21084;51.098;14.506;2023-07-30T01:01:47;13.00;99.90
34873;DHT22;21084;51.098;14.506;2023-07-30T01:04:17;13.00;99.90
34873;DHT22;21084;51.098;14.506;2023-07-30T01:06:45;12.90;99.90
34873;DHT22;21084;51.098;14.506;2023-07-30T01:09:14;12.90;99.90
34873;DHT22;21084;51.098;14.506;2023-07-30T01:11:42;12.90;99.90
34873;DHT22;21084;51.098;14.506;2023-07-30T01:14:11;12.80;99.90
34873;DHT22;21084;51.098;14.506;2023-07-30T01:16:41;12.80;99.90
34873;DHT22;21084;51.098;14.506;2023-07-30T01:19:09;12.80;99.90
34873;DHT22;21084;51.098;14.506;2023-07-30T01:21:39;12.80;99.90
34873;DHT22;21084;51.098;14.506;2023-07-30T01:24:07;12.80;99.90
34873;DHT22;21084;51.098;14.506;2023-07-30T01:26:37;12.70;99.90
34873;DHT22;21084;51.098;14.506;2023-07-30T01:29:07;12.70;99.90
34873;DHT22;21084;51.098;14.506;2023-07-30T08:02:14;21.30;99.90
34873;DHT22;21084;51.098;14.506;2023-07-30T08:04:42;21.30;99.90
34873;DHT22;21084;51.098;14.506;2023-07-30T08:07:11;21.20;99.90
34873;DHT22;21084;51.098;14.506;2023-07-30T08:09:40;21.00;99.90
34873;DHT22;21084;51.098;14.506;2023-07-30T08:12:09;20.80;99.90
34873;DHT22;21084;51.098;14.506;2023-07-30T08:14:39;21.10;99.90
34873;DHT22;21084;51.098;14.506;2023-07-30T08:17:08;21.50;99.90
34873;DHT22;21084;51.098;14.506;2023-07-30T08:19:39;21.80;99.90
34873;DHT22;21084;51.098;14.506;2023-07-30T08:22:07;22.00;99.90
34873;DHT22;21084;51.098;14.506;2023-07-30T08:24:36;22.10;99.90
34873;DHT22;21084;51.098;14.506;2023-07-30T08:27:05;22.50;99.90
34873;DHT22;21084;51.098;14.506;2023-07-30T08:29:33;23.00;99.90
34873;DHT22;21084;51.098;14.506;2023-07-30T08:32:05;23.80;99.90
34873;DHT22;21084;51.098;14.506;2023-07-30T08:34:34;23.80;99.90
34873;DHT22;21084;51.098;14.506;2023-07-30T08:37:05;23.60;99.90
34873;DHT22;21084;51.098;14.506;2023-07-30T08:39:33;23.80;99.90
34873;DHT22;21084;51.098;14.506;2023-07-30T08:42:02;24.30;99.90
34873;DHT22;21084;51.098;14.506;2023-07-30T08:44:31;25.10;99.90
34873;DHT22;21084;51.098;14.506;2023-07-30T08:47:00;25.70;98.40
34873;DHT22;21084;51.098;14.506;2023-07-30T08:49:30;26.10;98.10
34873;DHT22;21084;51.098;14.506;2023-07-30T08:52:01;25.70;99.00
34873;DHT22;21084;51.098;14.506;2023-07-30T08:54:32;25.60;99.40
34873;DHT22;21084;51.098;14.506;2023-07-30T08:57:01;26.90;98.10
34873;DHT22;21084;51.098;14.506;2023-07-30T08:59:30;26.90;96.10
34873;DHT22;21084;51.098;14.506;2023-07-30T09:02:00;27.00;95.30
34873;DHT22;21084;51.098;14.506;2023-07-30T09:04:29;26.60;95.60
34873;DHT22;21084;51.098;14.506;2023-07-30T09:06:59;26.90;95.70
34873;DHT22;21084;51.098;14.506;2023-07-30T09:09:28;27.40;94.70
34873;DHT22;21084;51.098;14.506;2023-07-30T09:11:58;26.10;95.50
34873;DHT22;21084;51.098;14.506;2023-07-30T09:14:28;25.70;95.70
34873;DHT22;21084;51.098;14.506;2023-07-30T09:16:57;24.90;97.40
34873;DHT22;21084;51.098;14.506;2023-07-30T09:19:26;24.80;97.40
34873;DHT22;21084;51.098;14.506;2023-07-30T09:21:55;25.10;97.90
34873;DHT22;21084;51.098;14.506;2023-07-30T09:24:24;26.50;96.70
34873;DHT22;21084;51.098;14.506;2023-07-30T09:26:53;26.50;96.10
34873;DHT22;21084;51.098;14.506;2023-07-30T09:29:23;25.20;96.90
34873;DHT22;21084;51.098;14.506;2023-07-30T09:31:53;24.80;97.70
34873;DHT22;21084;51.098;14.506;2023-07-30T09:34:23;24.50;97.50
34873;DHT22;21084;51.098;14.506;2023-07-30T09:36:52;24.70;98.20
34873;DHT22;21084;51.098;14.506;2023-07-30T09:39:22;24.30;97.10
34873;DHT22;21084;51.098;14.506;2023-07-30T09:41:52;24.20;97.70
34873;DHT22;21084;51.098;14.506;2023-07-30T09:44:21;23.90;97.40
34873;DHT22;21084;51.098;14.506;2023-07-30T09:46:51;22.80;98.80
34873;DHT22;21084;51.098;14.506;2023-07-30T09:49:20;23.60;99.80
34873;DHT22;21084;51.098;14.506;2023-07-30T09:51:52;24.60;99.00
34873;DHT22;21084;51.098;14.506;2023-07-30T09:54:21;24.30;98.20
34873;DHT22;21084;51.098;14.506;2023-07-30T09:56:50;24.50;97.70
34873;DHT22;21084;51.098;14.506;2023-07-30T09:59:19;23.80;98.40
34873;DHT22;21084;51.098;14.506;2023-07-30T10:01:49;24.40;99.60
34873;DHT22;21084;51.098;14.506;2023-07-30T10:04:22;24.80;96.80
34873;DHT22;21084;51.098;14.506;2023-07-30T10:06:53;25.30;97.00
34873;DHT22;21084;51.098;14.506;2023-07-30T10:09:24;26.50;96.70
34873;DHT22;21084;51.098;14.506;2023-07-30T10:11:54;26.70;95.00
34873;DHT22;21084;51.098;14.506;2023-07-30T10:14:23;26.40;95.00
34873;DHT22;21084;51.098;14.506;2023-07-30T10:16:53;26.20;95.10
34873;DHT22;21084;51.098;14.506;2023-07-30T10:19:23;25.80;95.50
34873;DHT22;21084;51.098;14.506;2023-07-30T10:21:53;25.30;96.10
34873;DHT22;21084;51.098;14.506;2023-07-30T10:24:25;26.10;94.50
34873;DHT22;21084;51.098;14.506;2023-07-30T10:26:55;26.30;94.60
34873;DHT22;21084;51.098;14.506;2023-07-30T10:29:26;26.80;93.40
34873;DHT22;21084;51.098;14.506;2023-07-30T10:31:56;27.80;93.30
34873;DHT22;21084;51.098;14.506;2023-07-30T10:34:42;28.30;92.10
34873;DHT22;21084;51.098;14.506;2023-07-30T10:37:12;28.50;91.60
34873;DHT22;21084;51.098;14.506;2023-07-30T10:39:47;27.90;92.30
34873;DHT22;21084;51.098;14.506;2023-07-30T10:42:16;27.60;92.10
34873;DHT22;21084;51.098;14.506;2023-07-30T10:44:46;27.90;92.50
34873;DHT22;21084;51.098;14.506;2023-07-30T10:47:14;27.30;92.30
34873;DHT22;21084;51.098;14.506;2023-07-30T10:50:05;27.10;92.20
34873;DHT22;21084;51.098;14.506;2023-07-30T10:52:35;27.70;91.30
34873;DHT22;21084;51.098;14.506;2023-07-30T10:55:04;28.00;90.60
34873;DHT22;21084;51.098;14.506;2023-07-30T10:57:33;26.70;92.20
34873;DHT22;21084;51.098;14.506;2023-07-30T11:00:02;26.50;92.80
34873;DHT22;21084;51.098;14.506;2023-07-30T11:02:32;26.90;92.50
34873;DHT22;21084;51.098;14.506;2023-07-30T11:05:12;27.70;92.40
34873;DHT22;21084;51.098;14.506;2023-07-30T11:07:48;27.10;91.20
34873;DHT22;21084;51.098;14.506;2023-07-30T11:10:17;26.20;93.40
34873;DHT22;21084;51.098;14.506;2023-07-30T11:12:47;26.10;92.10
34873;DHT22;21084;51.098;14.506;2023-07-30T11:15:16;25.90;93.00
34873;DHT22;21084;51.098;14.506;2023-07-30T11:17:46;26.20;93.40
34873;DHT22;21084;51.098;14.506;2023-07-30T11:20:25;25.50;93.30
34873;DHT22;21084;51.098;14.506;2023-07-30T11:22:55;25.10;94.40
34873;DHT22;21084;51.098;14.506;2023-07-30T11:25:24;24.90;94.60
34873;DHT22;21084;51.098;14.506;2023-07-30T11:27:52;25.00;94.70
34873;DHT22;21084;51.098;14.506;2023-07-30T11:30:21;25.00;94.70
34873;DHT22;21084;51.098;14.506;2023-07-30T11:32:50;25.10;94.90
34873;DHT22;21084;51.098;14.506;2023-07-30T11:35:19;25.40;94.40
34873;DHT22;21084;51.098;14.506;2023-07-30T11:37:50;25.70;94.50
34873;DHT22;21084;51.098;14.506;2023-07-30T11:40:19;25.70;93.70
34873;DHT22;21084;51.098;14.506;2023-07-30T11:42:47;25.80;93.50
34873;DHT22;21084;51.098;14.506;2023-07-30T11:45:17;26.80;92.80
34873;DHT22;21084;51.098;14.506;2023-07-30T11:47:46;28.10;91.30
34873;DHT22;21084;51.098;14.506;2023-07-30T11:50:15;28.90;89.50
34873;DHT22;21084;51.098;14.506;2023-07-30T11:52:52;29.80;88.30
34873;DHT22;21084;51.098;14.506;2023-07-30T11:55:21;30.00;85.90
34873;DHT22;21084;51.098;14.506;2023-07-30T11:57:51;29.40;87.00
34873;DHT22;21084;51.098;14.506;2023-07-30T12:00:20;28.00;88.70
34873;DHT22;21084;51.098;14.506;2023-07-30T12:02:50;26.90;91.10
34873;DHT22;21084;51.098;14.506;2023-07-30T12:05:19;28.60;92.00
34873;DHT22;21084;51.098;14.506;2023-07-30T12:08:01;28.00;87.80
34873;DHT22;21084;51.098;14.506;2023-07-30T12:10:43;27.40;90.60
34873;DHT22;21084;51.098;14.506;2023-07-30T12:13:12;27.10;89.00
34873;DHT22;21084;51.098;14.506;2023-07-30T12:15:42;26.90;90.20
34873;DHT22;21084;51.098;14.506;2023-07-30T12:18:11;26.80;90.60
34873;DHT22;21084;51.098;14.506;2023-07-30T12:20:40;27.90;91.30
34873;DHT22;21084;51.098;14.506;2023-07-30T12:23:10;29.00;88.40
34873;DHT22;21084;51.098;14.506;2023-07-30T12:25:39;29.60;89.10
34873;DHT22;21084;51.098;14.506;2023-07-30T12:28:08;30.70;81.60
34873;DHT22;21084;51.098;14.506;2023-07-30T12:30:37;29.90;75.10
34873;DHT22;21084;51.098;14.506;2023-07-30T12:33:05;29.80;77.00
34873;DHT22;21084;51.098;14.506;2023-07-30T12:35:35;29.30;75.70
34873;DHT22;21084;51.098;14.506;2023-07-30T12:38:03;27.80;76.20
34873;DHT22;21084;51.098;14.506;2023-07-30T12:40:34;26.50;78.60
34873;DHT22;21084;51.098;14.506;2023-07-30T12:43:03;26.10;81.40
34873;DHT22;21084;51.098;14.506;2023-07-30T12:45:31;25.90;81.70
34873;DHT22;21084;51.098;14.506;2023-07-30T12:48:00;25.50;81.10
34873;DHT22;21084;51.098;14.506;2023-07-30T12:50:29;25.60;82.50
34873;DHT22;21084;51.098;14.506;2023-07-30T12:52:58;25.50;83.60
34873;DHT22;21084;51.098;14.506;2023-07-30T12:55:26;25.40;84.40
34873;DHT22;21084;51.098;14.506;2023-07-30T12:57:57;25.90;82.90
34873;DHT22;21084;51.098;14.506;2023-07-30T13:00:26;25.60;83.00
34873;DHT22;21084;51.098;14.506;2023-07-30T13:02:55;25.50;83.40
34873;DHT22;21084;51.098;14.506;2023-07-30T13:05:24;25.60;84.20
34873;DHT22;21084;51.098;14.506;2023-07-30T13:07:53;25.50;82.80
34873;DHT22;21084;51.098;14.506;2023-07-30T13:10:22;25.60;84.10
34873;DHT22;21084;51.098;14.506;2023-07-30T13:15:20;25.90;82.20
34873;DHT22;21084;51.098;14.506;2023-07-30T13:17:50;26.00;82.70
34873;DHT22;21084;51.098;14.506;2023-07-30T13:20:19;27.10;81.40
34873;DHT22;21084;51.098;14.506;2023-07-30T13:22:47;28.00;78.50
34873;DHT22;21084;51.098;14.506;2023-07-30T13:25:16;27.70;76.60
34873;DHT22;21084;51.098;14.506;2023-07-30T13:27:45;27.00;77.90
34873;DHT22;21084;51.098;14.506;2023-07-30T13:30:14;26.80;80.30
34873;DHT22;21084;51.098;14.506;2023-07-30T13:32:44;26.80;79.10
34873;DHT22;21084;51.098;14.506;2023-07-30T13:35:14;26.50;79.70
34873;DHT22;21084;51.098;14.506;2023-07-30T13:37:43;27.10;80.10
34873;DHT22;21084;51.098;14.506;2023-07-30T13:40:11;27.40;79.80
34873;DHT22;21084;51.098;14.506;2023-07-30T13:42:40;27.20;78.80
34873;DHT22;21084;51.098;14.506;2023-07-30T13:45:09;26.90;78.60
34873;DHT22;21084;51.098;14.506;2023-07-30T13:47:38;26.50;80.80
34873;DHT22;21084;51.098;14.506;2023-07-30T13:50:09;27.10;80.30
34873;DHT22;21084;51.098;14.506;2023-07-30T13:52:39;27.50;76.90
34873;DHT22;21084;51.098;14.506;2023-07-30T13:55:07;27.00;77.50
34873;DHT22;21084;51.098;14.506;2023-07-30T13:57:36;26.30;78.40
34873;DHT22;21084;51.098;14.506;2023-07-30T14:00:06;26.90;80.70
34873;DHT22;21084;51.098;14.506;2023-07-30T14:02:35;27.40;78.90
34873;DHT22;21084;51.098;14.506;2023-07-30T14:05:03;26.60;78.90
34873;DHT22;21084;51.098;14.506;2023-07-30T14:07:33;26.40;78.00
34873;DHT22;21084;51.098;14.506;2023-07-30T14:10:02;25.90;79.90
34873;DHT22;21084;51.098;14.506;2023-07-30T14:12:30;25.60;79.40
34873;DHT22;21084;51.098;14.506;2023-07-30T14:14:59;26.10;78.70
34873;DHT22;21084;51.098;14.506;2023-07-30T14:17:27;26.00;80.50
34873;DHT22;21084;51.098;14.506;2023-07-30T14:19:55;26.00;79.30
34873;DHT22;21084;51.098;14.506;2023-07-30T14:22:24;25.70;79.70
34873;DHT22;21084;51.098;14.506;2023-07-30T14:24:53;26.30;79.20
34873;DHT22;21084;51.098;14.506;2023-07-30T14:27:22;26.70;80.10
34873;DHT22;21084;51.098;14.506;2023-07-30T14:29:51;27.40;78.30
34873;DHT22;21084;51.098;14.506;2023-07-30T14:32:20;27.30;77.30
34873;DHT22;21084;51.098;14.506;2023-07-30T14:34:49;27.60;76.30
34873;DHT22;21084;51.098;14.506;2023-07-30T14:37:17;27.50;72.60
34873;DHT22;21084;51.098;14.506;2023-07-30T14:39:45;26.60;73.80
34873;DHT22;21084;51.098;14.506;2023-07-30T14:42:15;26.60;75.30
34873;DHT22;21084;51.098;14.506;2023-07-30T14:44:43;26.60;77.40
34873;DHT22;21084;51.098;14.506;2023-07-30T14:47:11;26.30;74.50
34873;DHT22;21084;51.098;14.506;2023-07-30T14:49:40;26.10;74.00
34873;DHT22;21084;51.098;14.506;2023-07-30T14:52:08;25.50;74.10
34873;DHT22;21084;51.098;14.506;2023-07-30T14:54:37;25.40;74.40
34873;DHT22;21084;51.098;14.506;2023-07-30T14:57:05;25.20;74.00
34873;DHT22;21084;51.098;14.506;2023-07-30T14:59:35;25.50;76.30
34873;DHT22;21084;51.098;14.506;2023-07-30T15:02:04;25.80;74.00
34873;DHT22;21084;51.098;14.506;2023-07-30T15:04:32;26.50;74.30
34873;DHT22;21084;51.098;14.506;2023-07-30T15:07:01;28.00;72.90
34873;DHT22;21084;51.098;14.506;2023-07-30T15:09:30;27.50;70.00
34873;DHT22;21084;51.098;14.506;2023-07-30T15:12:02;27.80;69.90
34873;DHT22;21084;51.098;14.506;2023-07-30T15:14:31;27.50;71.20
34873;DHT22;21084;51.098;14.506;2023-07-30T15:17:01;28.00;72.10
34873;DHT22;21084;51.098;14.506;2023-07-30T15:19:29;27.30;70.50
34873;DHT22;21084;51.098;14.506;2023-07-30T15:21:58;26.20;71.90
34873;DHT22;21084;51.098;14.506;2023-07-30T15:24:27;25.40;73.40
34873;DHT22;21084;51.098;14.506;2023-07-30T15:26:56;25.00;75.90
34873;DHT22;21084;51.098;14.506;2023-07-30T15:29:24;24.60;76.80
34873;DHT22;21084;51.098;14.506;2023-07-30T15:31:52;24.50;76.50
34873;DHT22;21084;51.098;14.506;2023-07-30T15:34:22;24.40;77.00
34873;DHT22;21084;51.098;14.506;2023-07-30T15:36:51;24.30;77.50
34873;DHT22;21084;51.098;14.506;2023-07-30T15:39:19;24.60;78.30
34873;DHT22;21084;51.098;14.506;2023-07-30T15:41:48;24.80;77.50
34873;DHT22;21084;51.098;14.506;2023-07-30T15:44:17;25.50;78.60
34873;DHT22;21084;51.098;14.506;2023-07-30T15:46:45;25.90;76.60
34873;DHT22;21084;51.098;14.506;2023-07-30T15:49:13;26.20;75.70
34873;DHT22;21084;51.098;14.506;2023-07-30T15:51:43;25.50;75.90
34873;DHT22;21084;51.098;14.506;2023-07-30T15:54:12;25.10;77.70
34873;DHT22;21084;51.098;14.506;2023-07-30T15:56:41;25.00;78.80
34873;DHT22;21084;51.098;14.506;2023-07-30T15:59:09;25.20;79.70
34873;DHT22;21084;51.098;14.506;2023-07-30T16:01:38;24.90;79.40
34873;DHT22;21084;51.098;14.506;2023-07-30T16:04:07;24.60;80.20
34873;DHT22;21084;51.098;14.506;2023-07-30T16:06:35;24.60;79.50
34873;DHT22;21084;51.098;14.506;2023-07-30T16:09:05;24.50;79.90
34873;DHT22;21084;51.098;14.506;2023-07-30T16:11:34;24.00;81.10
34873;DHT22;21084;51.098;14.506;2023-07-30T16:14:05;22.00;92.10
34873;DHT22;21084;51.098;14.506;2023-07-30T16:16:33;20.40;97.40
34873;DHT22;21084;51.098;14.506;2023-07-30T16:19:03;19.40;99.90
34873;DHT22;21084;51.098;14.506;2023-07-30T16:21:33;18.40;99.90
34873;DHT22;21084;51.098;14.506;2023-07-30T16:24:01;17.80;99.90
34873;DHT22;21084;51.098;14.506;2023-07-30T16:26:31;17.60;99.90
34873;DHT22;21084;51.098;14.506;2023-07-30T16:28:59;17.40;99.90
34873;DHT22;21084;51.098;14.506;2023-07-30T16:31:27;17.50;99.90
34873;DHT22;21084;51.098;14.506;2023-07-30T16:33:56;17.70;99.90
34873;DHT22;21084;51.098;14.506;2023-07-30T16:36:24;17.80;99.90
34873;DHT22;21084;51.098;14.506;2023-07-30T16:38:52;18.20;99.90
34873;DHT22;21084;51.098;14.506;2023-07-30T16:41:20;18.30;99.90
34873;DHT22;21084;51.098;14.506;2023-07-30T16:43:50;18.20;99.90
34873;DHT22;21084;51.098;14.506;2023-07-30T16:46:18;18.00;99.90
34873;DHT22;21084;51.098;14.506;2023-07-30T16:48:46;18.30;99.90
34873;DHT22;21084;51.098;14.506;2023-07-30T16:51:15;18.00;99.90
34873;DHT22;21084;51.098;14.506;2023-07-30T16:53:43;17.90;99.90
34873;DHT22;21084;51.098;14.506;2023-07-30T16:56:12;17.70;99.90
34873;DHT22;21084;51.098;14.506;2023-07-30T16:58:40;17.70;99.90
34873;DHT22;21084;51.098;14.506;2023-07-30T17:01:10;17.60;99.90
34873;DHT22;21084;51.098;14.506;2023-07-30T17:03:39;17.60;99.90
34873;DHT22;21084;51.098;14.506;2023-07-30T17:06:07;17.60;99.90
34873;DHT22;21084;51.098;14.506;2023-07-30T17:08:36;17.50;99.90
34873;DHT22;21084;51.098;14.506;2023-07-30T17:11:04;17.40;99.90
34873;DHT22;21084;51.098;14.506;2023-07-30T17:13:33;17.40;99.90
34873;DHT22;21084;51.098;14.506;2023-07-30T17:16:05;17.50;99.90
34873;DHT22;21084;51.098;14.506;2023-07-30T17:18:35;17.60;99.90
34873;DHT22;21084;51.098;14.506;2023-07-30T17:21:04;17.60;99.90
34873;DHT22;21084;51.098;14.506;2023-07-30T17:23:32;17.80;99.90
34873;DHT22;21084;51.098;14.506;2023-07-30T17:26:00;18.00;99.90
34873;DHT22;21084;51.098;14.506;2023-07-30T17:28:28;18.10;99.90
34873;DHT22;21084;51.098;14.506;2023-07-30T17:30:57;18.10;99.90
34873;DHT22;21084;51.098;14.506;2023-07-30T17:33:25;18.10;99.90
34873;DHT22;21084;51.098;14.506;2023-07-30T17:36:00;18.10;99.90
34873;DHT22;21084;51.098;14.506;2023-07-30T17:38:29;18.20;99.90
34873;DHT22;21084;51.098;14.506;2023-07-30T17:40:58;18.20;99.90
34873;DHT22;21084;51.098;14.506;2023-07-30T17:43:26;18.20;99.90
34873;DHT22;21084;51.098;14.506;2023-07-30T17:45:54;18.30;99.90
34873;DHT22;21084;51.098;14.506;2023-07-30T17:48:22;18.30;99.90
34873;DHT22;21084;51.098;14.506;2023-07-30T17:50:51;18.30;99.90
34873;DHT22;21084;51.098;14.506;2023-07-30T17:53:20;18.30;99.90
34873;DHT22;21084;51.098;14.506;2023-07-30T17:55:49;18.30;99.90
34873;DHT22;21084;51.098;14.506;2023-07-30T17:58:17;18.30;99.90
34873;DHT22;21084;51.098;14.506;2023-07-30T18:00:45;18.30;99.90
34873;DHT22;21084;51.098;14.506;2023-07-30T18:03:15;18.30;99.90
34873;DHT22;21084;51.098;14.506;2023-07-30T18:05:46;18.40;99.90
34873;DHT22;21084;51.098;14.506;2023-07-30T18:08:15;18.20;99.90
34873;DHT22;21084;51.098;14.506;2023-07-30T18:10:45;18.20;99.90
34873;DHT22;21084;51.098;14.506;2023-07-30T18:13:14;18.10;99.90
34873;DHT22;21084;51.098;14.506;2023-07-30T18:15:42;18.00;99.90
34873;DHT22;21084;51.098;14.506;2023-07-30T18:18:11;18.00;99.90
34873;DHT22;21084;51.098;14.506;2023-07-30T18:20:40;17.80;99.90
34873;DHT22;21084;51.098;14.506;2023-07-30T18:23:09;17.80;99.90
34873;DHT22;21084;51.098;14.506;2023-07-30T18:25:37;17.60;99.90
34873;DHT22;21084;51.098;14.506;2023-07-30T18:28:07;17.60;99.90
34873;DHT22;21084;51.098;14.506;2023-07-30T18:30:35;17.60;99.90
34873;DHT22;21084;51.098;14.506;2023-07-30T18:33:04;17.60;99.90
34873;DHT22;21084;51.098;14.506;2023-07-30T18:35:37;17.60;99.90
34873;DHT22;21084;51.098;14.506;2023-07-30T18:38:05;17.50;99.90
34873;DHT22;21084;51.098;14.506;2023-07-30T18:40:34;17.50;99.90
34873;DHT22;21084;51.098;14.506;2023-07-30T18:43:02;17.40;99.90
34873;DHT22;21084;51.098;14.506;2023-07-30T18:45:32;17.30;99.90
34873;DHT22;21084;51.098;14.506;2023-07-30T18:48:03;17.30;99.90
34873;DHT22;21084;51.098;14.506;2023-07-30T18:50:31;17.30;99.90
34873;DHT22;21084;51.098;14.506;2023-07-30T18:53:00;17.40;99.90
34873;DHT22;21084;51.098;14.506;2023-07-30T18:55:28;17.30;99.90
34873;DHT22;21084;51.098;14.506;2023-07-30T18:57:56;17.10;99.90
34873;DHT22;21084;51.098;14.506;2023-07-30T19:00:24;16.80;99.90
34873;DHT22;21084;51.098;14.506;2023-07-30T19:02:54;16.60;99.90
34873;DHT22;21084;51.098;14.506;2023-07-30T19:05:22;16.60;99.90
34873;DHT22;21084;51.098;14.506;2023-07-30T19:07:51;16.60;99.90
34873;DHT22;21084;51.098;14.506;2023-07-30T19:10:19;16.40;99.90
34873;DHT22;21084;51.098;14.506;2023-07-30T19:12:47;16.40;99.90
34873;DHT22;21084;51.098;14.506;2023-07-30T19:18:10;16.40;99.90
34873;DHT22;21084;51.098;14.506;2023-07-30T19:20:39;16.40;99.90
34873;DHT22;21084;51.098;14.506;2023-07-30T19:23:07;16.30;99.90
34873;DHT22;21084;51.098;14.506;2023-07-30T19:25:35;16.20;99.90
34873;DHT22;21084;51.098;14.506;2023-07-30T19:28:03;16.30;99.90
34873;DHT22;21084;51.098;14.506;2023-07-30T19:30:33;16.30;99.90
34873;DHT22;21084;51.098;14.506;2023-07-30T19:33:01;16.20;99.90
34873;DHT22;21084;51.098;14.506;2023-07-30T19:35:31;16.10;99.90
34873;DHT22;21084;51.098;14.506;2023-07-30T19:38:16;16.00;99.90
34873;DHT22;21084;51.098;14.506;2023-07-30T19:40:44;15.90;99.90
34873;DHT22;21084;51.098;14.506;2023-07-30T19:43:17;15.80;99.90
34873;DHT22;21084;51.098;14.506;2023-07-30T19:45:48;15.80;99.90
34873;DHT22;21084;51.098;14.506;2023-07-30T19:48:17;15.70;99.90
34873;DHT22;21084;51.098;14.506;2023-07-30T19:50:47;15.70;99.90
34873;DHT22;21084;51.098;14.506;2023-07-30T19:53:15;15.70;99.90
34873;DHT22;21084;51.098;14.506;2023-07-30T19:55:44;15.60;99.90
34873;DHT22;21084;51.098;14.506;2023-07-30T19:58:22;15.50;99.90
34873;DHT22;21084;51.098;14.506;2023-07-30T20:00:50;15.50;99.90
34873;DHT22;21084;51.098;14.506;2023-07-30T20:03:19;15.50;99.90
34873;DHT22;21084;51.098;14.506;2023-07-30T20:05:48;15.40;99.90
34873;DHT22;21084;51.098;14.506;2023-07-30T20:08:17;15.50;99.90
34873;DHT22;21084;51.098;14.506;2023-07-30T20:10:45;15.50;99.90
34873;DHT22;21084;51.098;14.506;2023-07-30T20:13:13;15.50;99.90
34873;DHT22;21084;51.098;14.506;2023-07-30T20:15:41;15.50;99.90
34873;DHT22;21084;51.098;14.506;2023-07-30T20:18:09;15.40;99.90
34873;DHT22;21084;51.098;14.506;2023-07-30T20:20:38;15.40;99.90
34873;DHT22;21084;51.098;14.506;2023-07-30T20:23:08;15.30;99.90
34873;DHT22;21084;51.098;14.506;2023-07-30T20:25:36;15.30;99.90
34873;DHT22;21084;51.098;14.506;2023-07-30T20:28:05;15.20;99.90
34873;DHT22;21084;51.098;14.506;2023-07-30T20:30:34;15.20;99.90
34873;DHT22;21084;51.098;14.506;2023-07-30T20:33:02;15.10;99.90
34873;DHT22;21084;51.098;14.506;2023-07-30T20:35:31;15.10;99.90
34873;DHT22;21084;51.098;14.506;2023-07-30T20:37:59;15.00;99.90
34873;DHT22;21084;51.098;14.506;2023-07-30T20:40:29;15.00;99.90
34873;DHT22;21084;51.098;14.506;2023-07-30T20:42:57;14.90;99.90
34873;DHT22;21084;51.098;14.506;2023-07-30T20:45:27;14.80;99.90
34873;DHT22;21084;51.098;14.506;2023-07-30T20:47:55;14.70;99.90
34873;DHT22;21084;51.098;14.506;2023-07-30T20:50:23;14.70;99.90
34873;DHT22;21084;51.098;14.506;2023-07-30T20:52:51;14.60;99.90
34873;DHT22;21084;51.098;14.506;2023-07-30T20:55:20;14.50;99.90
34873;DHT22;21084;51.098;14.506;2023-07-30T20:57:50;14.50;99.90
34873;DHT22;21084;51.098;14.506;2023-07-30T21:00:18;14.40;99.90
34873;DHT22;21084;51.098;14.506;2023-07-30T21:02:46;14.30;99.90
34873;DHT22;21084;51.098;14.506;2023-07-30T21:05:15;14.20;99.90
34873;DHT22;21084;51.098;14.506;2023-07-30T21:07:43;14.20;99.90
34873;DHT22;21084;51.098;14.506;2023-07-30T21:10:11;14.10;99.90
34873;DHT22;21084;51.098;14.506;2023-07-30T21:12:39;14.10;99.90
34873;DHT22;21084;51.098;14.506;2023-07-30T21:15:09;13.90;99.90
34873;DHT22;21084;51.098;14.506;2023-07-30T21:17:38;13.90;99.90
34873;DHT22;21084;51.098;14.506;2023-07-30T21:20:06;13.90;99.90
34873;DHT22;21084;51.098;14.506;2023-07-30T21:22:35;13.90;99.90
34873;DHT22;21084;51.098;14.506;2023-07-30T21:25:03;13.90;99.90
34873;DHT22;21084;51.098;14.506;2023-07-30T21:27:32;13.90;99.90
34873;DHT22;21084;51.098;14.506;2023-07-30T21:30:00;13.80;99.90
34873;DHT22;21084;51.098;14.506;2023-07-30T21:32:30;13.70;99.90
34873;DHT22;21084;51.098;14.506;2023-07-30T21:34:58;13.70;99.90
34873;DHT22;21084;51.098;14.506;2023-07-30T21:37:26;13.70;99.90
34873;DHT22;21084;51.098;14.506;2023-07-30T21:39:55;13.60;99.90
34873;DHT22;21084;51.098;14.506;2023-07-30T21:42:24;13.60;99.90
34873;DHT22;21084;51.098;14.506;2023-07-30T21:44:52;13.50;99.90
34873;DHT22;21084;51.098;14.506;2023-07-30T21:47:20;13.50;99.90
34873;DHT22;21084;51.098;14.506;2023-07-30T21:49:50;13.50;99.90
34873;DHT22;21084;51.098;14.506;2023-07-30T21:52:21;13.50;99.90
34873;DHT22;21084;51.098;14.506;2023-07-30T21:54:50;13.50;99.90
34873;DHT22;21084;51.098;14.506;2023-07-30T21:57:18;13.50;99.90
34873;DHT22;21084;51.098;14.506;2023-07-30T21:59:46;13.40;99.90
34873;DHT22;21084;51.098;14.506;2023-07-30T22:02:15;13.40;99.90
34873;DHT22;21084;51.098;14.506;2023-07-30T22:04:44;13.40;99.90